Time;durP1;ratioP1;P1;durP2;ratioP2;P2;SDS_P1;SDS_P2;PMS_P1;PMS_P2;Temp;Humidity;BMP_temperature;BMP_pressure;BME280_temperature;BME280_humidity;BME280_pressure;Samples;Min_cycle;Max_cycle;Signal;HPM_P1;HPM_P2
2022/08/06 00:00:52;;;;;;;6.20;2.72;;;;;;;18.57;100.00;102429.88;5083457;28;20048;-59
2022/08/06 00:03:18;;;;;;;5.93;1.80;;;;;;;18.48;100.00;102421.97;5086909;28;20039;-60
2022/08/06 00:05:43;;;;;;;9.50;1.90;;;;;;;18.56;100.00;102426.31;5089072;28;20021;-58
2022/08/06 00:08:09;;;;;;;5.20;1.90;;;;;;;18.42;100.00;102417.38;5086530;28;20056;-57
2022/08/06 00:10:34;;;;;;;6.93;2.00;;;;;;;18.43;100.00;102429.06;5083527;28;20036;-59
2022/08/06 00:13:01;;;;;;;5.50;2.63;;;;;;;18.32;100.00;102422.38;5087371;28;20034;-57
2022/08/06 00:15:28;;;;;;;10.73;2.10;;;;;;;18.39;100.00;102433.22;5084135;28;20029;-59
2022/08/06 00:17:54;;;;;;;10.57;2.10;;;;;;;18.33;100.00;102432.19;5089603;28;20276;-58
2022/08/06 00:20:19;;;;;;;8.27;1.90;;;;;;;18.29;100.00;102422.81;5084568;28;20265;-59
2022/08/06 00:22:45;;;;;;;9.82;2.17;;;;;;;18.16;100.00;102426.34;5085559;28;20037;-60
2022/08/06 00:25:10;;;;;;;7.87;2.03;;;;;;;18.23;100.00;102434.47;5086430;28;20040;-59
2022/08/06 00:27:36;;;;;;;4.77;1.70;;;;;;;18.20;100.00;102436.53;5083009;28;20028;-58
2022/08/06 00:30:07;;;;;;;9.23;1.83;;;;;;;18.15;100.00;102435.53;5084128;28;20033;-59
2022/08/06 00:32:33;;;;;;;13.97;1.70;;;;;;;18.13;100.00;102432.19;5088771;28;20342;-60
2022/08/06 00:34:59;;;;;;;6.90;2.10;;;;;;;18.17;100.00;102446.97;5084056;28;20261;-59
2022/08/06 00:37:26;;;;;;;9.48;1.88;;;;;;;18.15;100.00;102454.47;5083228;28;20058;-59
2022/08/06 00:39:51;;;;;;;6.37;1.77;;;;;;;18.16;100.00;102451.53;5070718;28;20056;-59
2022/08/06 00:42:17;;;;;;;7.30;2.15;;;;;;;18.18;100.00;102449.44;5084415;28;20361;-59
2022/08/06 00:44:43;;;;;;;9.30;1.80;;;;;;;18.09;100.00;102461.53;5086992;28;20037;-59
2022/08/06 00:47:09;;;;;;;6.35;1.83;;;;;;;17.96;100.00;102465.03;5086216;28;20043;-59
2022/08/06 00:49:34;;;;;;;8.02;1.88;;;;;;;18.00;100.00;102465.47;5083736;28;20097;-58
2022/08/06 00:51:59;;;;;;;9.10;1.90;;;;;;;18.05;100.00;102454.88;5086285;28;20051;-57
2022/08/06 00:54:25;;;;;;;8.57;1.83;;;;;;;17.95;100.00;102459.81;5089478;28;20020;-60
2022/08/06 00:56:51;;;;;;;17.77;2.00;;;;;;;17.98;100.00;102456.69;5081969;28;20044;-58
2022/08/06 00:59:16;;;;;;;10.52;2.33;;;;;;;17.95;100.00;102454.41;5086175;28;20037;-59
2022/08/06 01:01:42;;;;;;;9.82;2.15;;;;;;;17.81;100.00;102465.22;5084262;28;20043;-58
2022/08/06 01:04:07;;;;;;;18.20;3.90;;;;;;;17.75;100.00;102472.25;5081619;28;20948;-59
2022/08/06 01:06:33;;;;;;;9.07;2.13;;;;;;;17.74;100.00;102472.44;5084459;28;20033;-57
2022/08/06 01:08:58;;;;;;;12.87;2.30;;;;;;;17.70;100.00;102474.75;5088458;28;20044;-59
2022/08/06 01:11:24;;;;;;;7.95;1.90;;;;;;;17.84;100.00;102482.88;5086849;28;20189;-59
2022/08/06 01:13:49;;;;;;;10.80;2.17;;;;;;;17.79;100.00;102483.53;5083121;28;20033;-59
2022/08/06 01:16:18;;;;;;;6.10;2.05;;;;;;;17.61;100.00;102484.91;5085498;28;20028;-59
2022/08/06 01:18:50;;;;;;;10.10;3.00;;;;;;;17.57;100.00;102480.94;5082834;28;20063;-59
2022/08/06 01:21:28;;;;;;;8.37;2.50;;;;;;;17.61;100.00;102486.78;5088137;28;20288;-59
2022/08/06 01:24:39;;;;;;;13.20;2.03;;;;;;;17.55;100.00;102485.72;5085180;28;20300;-60
2022/08/06 01:27:32;;;;;;;21.70;2.80;;;;;;;17.40;100.00;102487.75;5093421;28;20262;-58
2022/08/06 01:30:08;;;;;;;9.17;2.90;;;;;;;17.55;100.00;102491.16;5089852;28;20284;-58
2022/08/06 01:32:40;;;;;;;9.23;2.25;;;;;;;17.41;100.00;102497.53;5088448;28;20267;-59
2022/08/06 01:35:09;;;;;;;5.07;1.70;;;;;;;17.36;100.00;102487.28;5090476;28;20024;-57
2022/08/06 01:37:41;;;;;;;5.83;1.90;;;;;;;17.56;100.00;102498.22;5092076;28;20285;-59
2022/08/06 01:40:18;;;;;;;6.57;2.23;;;;;;;17.44;100.00;102499.81;5093210;28;20299;-59
2022/08/06 01:42:45;;;;;;;11.18;2.65;;;;;;;17.19;100.00;102494.91;5091541;28;20282;-60
2022/08/06 01:45:17;;;;;;;11.47;2.50;;;;;;;17.25;100.00;102501.41;5094878;28;20028;-58
2022/08/06 01:47:47;;;;;;;8.80;2.47;;;;;;;17.29;100.00;102499.97;5096142;28;20265;-58
2022/08/06 01:50:17;;;;;;;10.30;2.67;;;;;;;17.00;100.00;102491.88;5096848;28;20262;-59
2022/08/06 01:52:43;;;;;;;6.87;2.93;;;;;;;17.08;100.00;102492.78;5092036;28;20316;-56
2022/08/06 01:55:18;;;;;;;6.60;2.20;;;;;;;17.01;100.00;102498.97;5089003;28;20270;-59
2022/08/06 01:57:49;;;;;;;9.77;2.47;;;;;;;16.80;100.00;102496.28;5091008;28;20044;-60
2022/08/06 02:00:16;;;;;;;8.20;2.30;;;;;;;16.63;100.00;102502.00;5090537;28;20307;-60
2022/08/06 02:02:43;;;;;;;8.07;2.97;;;;;;;16.62;100.00;102495.75;5093409;28;20273;-59
2022/08/06 02:05:09;;;;;;;7.60;2.00;;;;;;;16.68;100.00;102494.13;5088454;28;20127;-58
2022/08/06 02:07:39;;;;;;;8.13;2.30;;;;;;;16.66;100.00;102496.19;5093346;28;20316;-59
2022/08/06 02:10:06;;;;;;;7.77;2.43;;;;;;;16.63;100.00;102497.41;5092579;28;21718;-60
2022/08/06 02:12:35;;;;;;;14.00;2.57;;;;;;;16.68;100.00;102493.28;5091694;28;20375;-59
2022/08/06 02:15:16;;;;;;;9.73;2.20;;;;;;;16.60;100.00;102494.25;5094558;28;20328;-59
2022/08/06 02:17:49;;;;;;;7.60;1.93;;;;;;;16.56;100.00;102496.53;5100036;28;20299;-58
2022/08/06 02:20:17;;;;;;;6.93;2.20;;;;;;;16.57;100.00;102500.06;5090185;28;20261;-60
2022/08/06 02:22:45;;;;;;;7.00;2.00;;;;;;;16.52;100.00;102502.50;5088145;28;20379;-60
2022/08/06 02:25:13;;;;;;;4.30;1.77;;;;;;;16.53;100.00;102501.47;5087514;28;20308;-60
2022/08/06 02:27:43;;;;;;;7.60;2.13;;;;;;;16.57;100.00;102494.66;5071243;28;20429;-61
2022/08/06 02:30:10;;;;;;;14.07;2.13;;;;;;;16.78;100.00;102500.00;5091819;28;20290;-58
2022/08/06 02:32:36;;;;;;;8.27;2.90;;;;;;;16.63;100.00;102502.81;5090312;28;20262;-59
2022/08/06 02:35:02;;;;;;;10.20;2.77;;;;;;;16.63;100.00;102497.41;5091682;28;20272;-59
2022/08/06 02:37:33;;;;;;;7.28;2.33;;;;;;;16.67;100.00;102497.88;5091171;28;20297;-60
2022/08/06 02:40:08;;;;;;;5.00;2.10;;;;;;;16.62;100.00;102498.44;5091929;28;20093;-61
2022/08/06 02:42:39;;;;;;;10.10;2.10;;;;;;;16.59;100.00;102503.38;5083987;28;20308;-59
2022/08/06 02:45:12;;;;;;;3.67;2.10;;;;;;;16.81;100.00;102504.19;5084257;28;20278;-60
2022/08/06 02:47:44;;;;;;;6.87;2.13;;;;;;;16.67;100.00;102508.66;5086448;28;20338;-59
2022/08/06 02:50:13;;;;;;;6.13;1.80;;;;;;;16.59;100.00;102506.09;5071527;28;20300;-58
2022/08/06 02:52:49;;;;;;;8.07;2.40;;;;;;;16.67;100.00;102497.88;5078298;28;20273;-59
2022/08/06 02:55:18;;;;;;;10.13;2.67;;;;;;;16.47;100.00;102500.38;5076471;28;20268;-60
2022/08/06 02:57:54;;;;;;;9.70;2.73;;;;;;;16.28;100.00;102499.19;5078623;28;20265;-59
2022/08/06 03:00:21;;;;;;;12.52;2.50;;;;;;;16.32;100.00;102505.88;5078494;28;20261;-59
2022/08/06 03:02:50;;;;;;;12.30;2.50;;;;;;;16.45;100.00;102511.41;5077813;28;20036;-59
2022/08/06 03:05:20;;;;;;;7.93;2.50;;;;;;;16.26;100.00;102506.63;5075478;28;20341;-59
2022/08/06 03:07:50;;;;;;;10.83;2.63;;;;;;;16.58;100.00;102507.13;5077198;28;20258;-59
2022/08/06 03:10:22;;;;;;;12.23;2.70;;;;;;;16.27;100.00;102503.75;5078886;28;20299;-58
2022/08/06 03:12:51;;;;;;;7.17;3.03;;;;;;;16.25;100.00;102504.97;5082338;28;20276;-61
2022/08/06 03:15:19;;;;;;;9.80;2.97;;;;;;;16.19;100.00;102504.72;5083251;28;20262;-60
2022/08/06 03:17:46;;;;;;;9.40;2.77;;;;;;;16.03;100.00;102507.66;5074717;28;20258;-61
2022/08/06 03:20:16;;;;;;;7.60;3.20;;;;;;;16.22;100.00;102510.75;5068723;28;20312;-59
2022/08/06 03:22:42;;;;;;;9.67;3.07;;;;;;;16.34;100.00;102514.59;5071656;28;20859;-59
2022/08/06 03:25:10;;;;;;;9.10;3.00;;;;;;;16.26;100.00;102514.75;5075247;28;20316;-59
2022/08/06 03:27:37;;;;;;;12.27;3.20;;;;;;;16.07;100.00;102516.22;5080181;28;20301;-59
2022/08/06 03:30:03;;;;;;;12.73;2.90;;;;;;;16.25;100.00;102522.00;5075829;28;20295;-59
2022/08/06 03:32:31;;;;;;;15.20;2.70;;;;;;;15.91;100.00;102521.66;5080648;28;20261;-60
2022/08/06 03:34:58;;;;;;;9.17;2.67;;;;;;;15.84;100.00;102523.38;5077506;28;20321;-60
2022/08/06 03:37:24;;;;;;;6.17;2.90;;;;;;;16.15;100.00;102533.13;5081458;28;20273;-60
2022/08/06 03:39:52;;;;;;;10.87;4.20;;;;;;;15.76;100.00;102539.69;5080622;28;20261;-59
2022/08/06 03:42:17;;;;;;;8.60;3.23;;;;;;;15.77;100.00;102538.66;5089166;28;20303;-59
2022/08/06 03:44:43;;;;;;;8.70;3.38;;;;;;;15.69;100.00;102533.41;5089560;28;20345;-60
2022/08/06 03:47:24;;;;;;;6.38;3.25;;;;;;;15.57;100.00;102533.00;5089603;28;20040;-59
2022/08/06 03:50:01;;;;;;;9.80;3.93;;;;;;;15.62;100.00;102534.13;5086268;28;20055;-59
2022/08/06 03:52:31;;;;;;;12.93;4.70;;;;;;;15.76;100.00;102532.44;5086890;28;20289;-60
2022/08/06 03:55:02;;;;;;;15.63;5.13;;;;;;;15.97;100.00;102535.41;5087213;28;20278;-60
2022/08/06 03:57:34;;;;;;;13.13;4.43;;;;;;;15.75;100.00;102538.84;5093431;28;20260;-59
2022/08/06 04:00:01;;;;;;;16.40;4.23;;;;;;;15.70;100.00;102535.06;5073173;28;20284;-59
2022/08/06 04:02:35;;;;;;;13.40;4.17;;;;;;;15.70;100.00;102540.47;5096310;28;20284;-59
2022/08/06 04:05:02;;;;;;;8.40;4.33;;;;;;;15.75;100.00;102538.84;5093102;28;20309;-59
2022/08/06 04:07:29;;;;;;;10.07;3.70;;;;;;;15.72;100.00;102543.81;5092444;28;20272;-61
2022/08/06 04:09:56;;;;;;;13.30;4.43;;;;;;;15.81;100.00;102545.34;5091842;28;20272;-61
2022/08/06 04:12:22;;;;;;;11.38;4.10;;;;;;;15.77;100.00;102544.06;5096652;28;20284;-60
2022/08/06 04:14:49;;;;;;;10.07;3.33;;;;;;;15.76;100.00;102540.53;5089104;28;20036;-60
2022/08/06 04:17:16;;;;;;;14.80;3.92;;;;;;;15.96;100.00;102544.53;5070460;28;20281;-61
2022/08/06 04:19:44;;;;;;;12.73;3.90;;;;;;;15.78;100.00;102543.84;5088323;28;20051;-59
2022/08/06 04:22:10;;;;;;;8.90;3.57;;;;;;;15.61;100.00;102551.31;5090439;28;20284;-59
2022/08/06 04:24:35;;;;;;;16.07;5.67;;;;;;;16.02;100.00;102557.25;5090531;28;20352;-60
2022/08/06 04:27:04;;;;;;;17.97;6.70;;;;;;;15.82;100.00;102555.13;5087449;28;20062;-60
2022/08/06 04:29:32;;;;;;;13.23;5.33;;;;;;;16.14;100.00;102554.91;5091726;28;20048;-59
2022/08/06 04:31:59;;;;;;;11.07;5.40;;;;;;;16.06;100.00;102561.25;5093483;28;20261;-60
2022/08/06 04:34:28;;;;;;;11.97;5.00;;;;;;;16.33;100.00;102567.78;5100937;28;20326;-60
2022/08/06 04:36:55;;;;;;;20.13;8.40;;;;;;;16.44;100.00;102574.53;5100320;28;20354;-61
2022/08/06 04:39:22;;;;;;;20.83;10.67;;;;;;;16.27;100.00;102567.69;5099053;28;20265;-54
2022/08/06 04:41:49;;;;;;;14.00;6.67;;;;;;;16.54;100.00;102567.97;5089648;28;20278;-60
2022/08/06 04:44:15;;;;;;;14.77;6.73;;;;;;;16.57;100.00;102583.78;5072565;28;20279;-60
2022/08/06 04:46:43;;;;;;;16.75;6.50;;;;;;;16.56;100.00;102579.41;5079121;28;20262;-60
2022/08/06 04:49:09;;;;;;;8.20;3.80;;;;;;;16.28;100.00;102583.72;5075518;28;20038;-59
2022/08/06 04:51:35;;;;;;;10.05;3.80;;;;;;;16.53;100.00;102582.50;5083337;28;20278;-59
2022/08/06 04:54:04;;;;;;;21.63;6.10;;;;;;;16.38;100.00;102585.25;5075827;28;20033;-59
2022/08/06 04:56:29;;;;;;;18.40;7.93;;;;;;;16.54;100.00;102592.28;5079763;28;20039;-60
2022/08/06 04:58:55;;;;;;;14.93;5.45;;;;;;;16.75;100.00;102592.25;5077824;28;20287;-59
2022/08/06 05:01:21;;;;;;;10.88;4.95;;;;;;;17.13;100.00;102593.03;5066251;28;20049;-59
2022/08/06 05:03:46;;;;;;;9.13;3.73;;;;;;;16.86;100.00;102592.78;5083219;28;20055;-60
2022/08/06 05:06:35;;;;;;;11.55;4.43;;;;;;;16.82;100.00;102605.84;5083465;28;20079;-60
2022/08/06 05:09:06;;;;;;;15.13;5.37;;;;;;;16.80;100.00;102594.41;5081761;28;20037;-59
2022/08/06 05:11:40;;;;;;;17.83;7.70;;;;;;;16.63;100.00;102597.34;5083596;28;20269;-58
2022/08/06 05:14:13;;;;;;;12.10;4.20;;;;;;;16.80;100.00;102605.19;5079024;28;20269;-59
2022/08/06 05:16:41;;;;;;;14.23;4.93;;;;;;;17.00;100.00;102605.38;5075119;28;20277;-60
2022/08/06 05:19:14;;;;;;;14.37;4.70;;;;;;;17.03;100.00;102599.59;5079280;28;20281;-59
2022/08/06 05:21:41;;;;;;;9.93;4.40;;;;;;;17.08;100.00;102606.31;5077794;28;20269;-58
2022/08/06 05:24:07;;;;;;;18.90;4.87;;;;;;;17.16;100.00;102604.25;5081946;28;20309;-59
2022/08/06 05:26:33;;;;;;;12.35;4.38;;;;;;;17.23;100.00;102598.91;5082064;28;20272;-59
2022/08/06 05:28:59;;;;;;;10.52;3.15;;;;;;;17.25;100.00;102601.44;5080984;28;20105;-60
2022/08/06 05:31:34;;;;;;;9.53;3.73;;;;;;;17.33;100.00;102599.41;5080661;28;20029;-60
2022/08/06 05:34:01;;;;;;;12.93;3.37;;;;;;;17.31;100.00;102612.28;5077467;28;20304;-59
2022/08/06 05:36:27;;;;;;;11.73;2.90;;;;;;;17.22;100.00;102610.75;5085853;28;20281;-59
2022/08/06 05:38:52;;;;;;;6.00;3.10;;;;;;;17.30;100.00;102610.63;5083814;28;20361;-59
2022/08/06 05:41:18;;;;;;;8.55;2.92;;;;;;;17.69;100.00;102623.75;5077524;28;20028;-60
2022/08/06 05:43:44;;;;;;;8.10;2.95;;;;;;;17.61;100.00;102617.47;5097029;28;20044;-61
2022/08/06 05:46:11;;;;;;;;;;;;;;;17.98;100.00;102627.22;5094293;28;20487;-59
2022/08/06 05:48:43;;;;;;;4.70;2.50;;;;;;;17.91;100.00;102630.72;5087047;28;19944;-59
2022/08/06 05:51:19;;;;;;;7.57;2.53;;;;;;;17.95;100.00;102633.88;5089550;28;20065;-60
2022/08/06 05:53:48;;;;;;;5.93;2.20;;;;;;;18.13;100.00;102640.66;5087280;28;20276;-60
2022/08/06 05:56:20;;;;;;;9.77;2.60;;;;;;;18.34;100.00;102636.97;5092242;28;20261;-59
2022/08/06 05:59:15;;;;;;;3.70;2.20;;;;;;;18.42;100.00;102644.06;5092248;28;20325;-59
2022/08/06 06:01:40;;;;;;;5.60;2.23;;;;;;;18.26;100.00;102645.28;5093446;28;20272;-59
2022/08/06 06:04:06;;;;;;;10.10;2.65;;;;;;;18.51;100.00;102648.25;5096504;28;20308;-60
2022/08/06 06:06:32;;;;;;;6.47;1.88;;;;;;;18.42;100.00;102644.88;5093488;28;20107;-59
2022/08/06 06:08:57;;;;;;;10.40;3.05;;;;;;;18.28;100.00;102644.03;5093847;28;20056;-60
2022/08/06 06:11:24;;;;;;;8.37;2.27;;;;;;;18.47;100.00;102650.56;5091626;28;20071;-59
2022/08/06 06:13:50;;;;;;;9.70;2.80;;;;;;;18.62;100.00;102649.53;5090320;28;20040;-59
2022/08/06 06:16:27;;;;;;;5.13;2.30;;;;;;;18.64;100.00;102658.28;5086843;28;20093;-60
2022/08/06 06:19:00;;;;;;;5.50;2.40;;;;;;;18.70;100.00;102662.91;5091184;28;20037;-60
2022/08/06 06:21:35;;;;;;;4.57;1.70;;;;;;;18.68;100.00;102656.81;5091847;28;20257;-59
2022/08/06 06:24:25;;;;;;;3.47;1.57;;;;;;;18.82;100.00;102665.84;5093162;28;20285;-60
2022/08/06 06:26:57;;;;;;;7.00;1.90;;;;;;;18.78;100.00;102670.81;5089734;28;20250;-59
2022/08/06 06:29:26;;;;;;;3.53;1.70;;;;;;;18.89;100.00;102663.97;5091617;28;20265;-59
2022/08/06 06:32:06;;;;;;;4.93;2.30;;;;;;;18.98;100.00;102669.16;5095375;28;20273;-60
2022/08/06 06:34:54;;;;;;;4.47;1.50;;;;;;;19.05;100.00;102672.78;5098488;28;20329;-60
2022/08/06 06:37:36;;;;;;;3.47;1.27;;;;;;;19.11;100.00;102676.50;5094866;28;20273;-60
2022/08/06 06:40:34;;;;;;;11.30;5.90;;;;;;;19.08;100.00;102674.22;5089859;28;20274;-60
2022/08/06 06:43:09;;;;;;;3.33;1.58;;;;;;;19.24;100.00;102673.81;4989652;28;20285;-59
2022/08/06 06:45:46;;;;;;;4.97;1.20;;;;;;;19.24;100.00;102668.38;5060386;28;20097;-59
2022/08/06 06:48:16;;;;;;;9.93;2.63;;;;;;;19.10;100.00;102666.72;5062688;28;20300;-59
2022/08/06 06:50:46;;;;;;;5.23;1.87;;;;;;;18.97;100.00;102662.09;5060416;28;20266;-60
2022/08/06 06:53:15;;;;;;;6.90;2.00;;;;;;;19.33;100.00;102666.28;5061388;28;20282;-60
2022/08/06 06:55:53;;;;;;;10.27;3.40;;;;;;;19.57;100.00;102669.41;5062892;28;20270;-60
2022/08/06 06:58:31;;;;;;;9.07;2.33;;;;;;;19.63;100.00;102671.25;5059589;28;20276;-60
2022/08/06 07:00:58;;;;;;;8.90;2.63;;;;;;;19.71;100.00;102667.47;5064683;28;20044;-60
2022/08/06 07:03:25;;;;;;;3.15;1.52;;;;;;;19.73;100.00;102663.53;5063367;28;20274;-60
2022/08/06 07:05:51;;;;;;;5.63;1.70;;;;;;;19.87;100.00;102666.19;5063920;28;20048;-59
2022/08/06 07:08:21;;;;;;;2.17;1.10;;;;;;;19.92;100.00;102666.41;5068209;28;20025;-59
2022/08/06 07:10:47;;;;;;;6.77;2.80;;;;;;;19.89;100.00;102670.38;5064932;28;20263;-59
2022/08/06 07:13:15;;;;;;;7.50;2.70;;;;;;;19.97;100.00;102669.34;5064603;28;20044;-60
2022/08/06 07:15:41;;;;;;;5.63;1.40;;;;;;;20.11;100.00;102675.53;5067693;28;20033;-60
2022/08/06 07:18:08;;;;;;;6.37;1.20;;;;;;;20.04;100.00;102678.28;5069550;28;20033;-59
2022/08/06 07:20:34;;;;;;;3.10;1.17;;;;;;;20.23;100.00;102683.00;5071468;28;20068;-59
2022/08/06 07:23:04;;;;;;;;;;;;;;;20.22;100.00;102689.47;5070703;28;20063;-60
2022/08/06 07:25:36;;;;;;;2.87;1.20;;;;;;;20.30;100.00;102687.34;5076965;28;19916;-59
2022/08/06 07:28:04;;;;;;;5.97;1.40;;;;;;;20.29;100.00;102684.84;5071458;28;20037;-59
2022/08/06 07:30:32;;;;;;;5.07;1.70;;;;;;;20.40;100.00;102692.34;5059196;28;20112;-60
2022/08/06 07:32:59;;;;;;;6.57;1.23;;;;;;;20.25;100.00;102689.06;5070328;28;20063;-61
2022/08/06 07:35:24;;;;;;;;;;;;;;;20.37;100.00;102695.50;5072016;28;20029;-59
2022/08/06 07:37:56;;;;;;;3.07;1.07;;;;;;;20.57;100.00;102689.94;5070269;28;19919;-60
2022/08/06 07:40:25;;;;;;;1.80;0.90;;;;;;;20.68;100.00;102695.75;5071020;28;20025;-60
2022/08/06 07:42:59;;;;;;;2.23;0.90;;;;;;;20.67;100.00;102688.66;5084894;28;20105;-60
2022/08/06 07:45:28;;;;;;;3.53;0.83;;;;;;;20.47;100.00;102693.13;5086007;28;20054;-59
2022/08/06 07:47:56;;;;;;;2.43;0.83;;;;;;;20.85;100.00;102696.06;5087131;28;20110;-61
2022/08/06 07:50:24;;;;;;;5.30;1.10;;;;;;;21.00;100.00;102693.03;5090313;28;20029;-60
2022/08/06 07:52:52;;;;;;;7.13;1.10;;;;;;;21.14;100.00;102693.75;5089936;28;20036;-60
2022/08/06 07:55:21;;;;;;;4.03;0.93;;;;;;;21.04;100.00;102688.81;5095718;28;20040;-59
2022/08/06 07:57:48;;;;;;;6.23;1.40;;;;;;;20.95;100.00;102701.84;5090067;28;20104;-59
2022/08/06 08:00:14;;;;;;;;;;;;;;;21.02;100.00;102697.22;5092333;28;20029;-60
2022/08/06 08:06:17;;;;;;;;;;;;;;;20.67;100.00;102708.50;5096754;28;19937;-61
2022/08/06 08:08:11;;;;;;;2.83;1.00;;;;;;;21.16;100.00;102707.97;5098982;28;20055;-59
2022/08/06 08:10:37;;;;;;;3.08;0.77;;;;;;;20.77;100.00;102706.13;5090979;28;20028;-60
2022/08/06 08:13:02;;;;;;;1.88;0.70;;;;;;;21.12;100.00;102699.44;5091107;28;20032;-59
2022/08/06 08:15:31;;;;;;;3.92;1.25;;;;;;;21.11;100.00;102697.78;5092211;28;20084;-60
2022/08/06 08:17:58;;;;;;;1.53;0.50;;;;;;;20.89;100.00;102705.47;5095433;28;20100;-59
2022/08/06 08:20:26;;;;;;;5.63;1.83;;;;;;;20.50;100.00;102708.16;5075093;28;20054;-60
2022/08/06 08:22:52;;;;;;;2.30;0.80;;;;;;;21.17;100.00;102712.34;5091090;28;20057;-60
2022/08/06 08:25:18;;;;;;;;;;;;;;;21.22;100.00;102712.56;5094149;28;20039;-61
2022/08/06 08:27:44;;;;;;;2.03;0.90;;;;;;;21.34;100.00;102718.91;5094728;28;19971;-60
2022/08/06 08:30:10;;;;;;;2.08;1.08;;;;;;;21.44;100.00;102720.28;5096982;28;20036;-59
2022/08/06 08:32:36;;;;;;;1.73;0.73;;;;;;;21.19;100.00;102716.53;5081165;28;20123;-61
2022/08/06 08:35:02;;;;;;;;;;;;;;;21.23;100.00;102714.22;5093691;28;20028;-60
2022/08/06 08:37:28;;;;;;;3.53;1.20;;;;;;;21.63;100.00;102722.00;5090330;28;19922;-60
2022/08/06 08:39:54;;;;;;;3.35;1.20;;;;;;;21.84;100.00;102722.66;5097372;28;20037;-59
2022/08/06 08:42:28;;;;;;;1.80;1.00;;;;;;;21.89;100.00;102714.63;5093850;28;20079;-60
2022/08/06 08:44:54;;;;;;;3.93;1.30;;;;;;;21.94;100.00;102726.78;5091636;28;20362;-60
2022/08/06 08:47:20;;;;;;;;;;;;;;;22.01;100.00;102722.06;5094149;28;20096;-60
2022/08/06 08:49:51;;;;;;;4.83;1.97;;;;;;;22.10;100.00;102726.13;5092037;28;19913;-61
2022/08/06 08:52:23;;;;;;;6.97;1.70;;;;;;;22.23;100.00;102721.59;5090587;28;20033;-60
2022/08/06 08:54:51;;;;;;;3.17;0.90;;;;;;;21.77;100.00;102717.28;5088769;28;20147;-59
2022/08/06 08:57:18;;;;;;;4.73;0.90;;;;;;;22.03;100.00;102722.66;5085301;28;20052;-62
2022/08/06 08:59:44;;;;;;;2.70;1.37;;;;;;;22.09;100.00;102719.03;5090340;28;20082;-61
2022/08/06 09:02:12;;;;;;;6.28;1.38;;;;;;;22.11;100.00;102727.00;5084596;28;20036;-60
2022/08/06 09:04:38;;;;;;;4.17;1.40;;;;;;;22.42;100.00;102717.81;5085368;28;20067;-60
2022/08/06 09:07:03;;;;;;;;;;;;;;;22.40;100.00;102719.94;5087541;28;20033;-55
2022/08/06 09:09:31;;;;;;;11.33;1.83;;;;;;;22.49;100.00;102724.00;5092754;28;19917;-60
2022/08/06 09:11:57;;;;;;;2.40;1.10;;;;;;;22.63;100.00;102735.56;5091794;28;20101;-60
2022/08/06 09:14:23;;;;;;;39.77;20.83;;;;;;;22.56;100.00;102734.84;5090555;28;20029;-59
2022/08/06 09:16:49;;;;;;;13.15;6.93;;;;;;;22.65;100.00;102729.06;5088483;28;20062;-60
2022/08/06 09:19:15;;;;;;;32.00;15.60;;;;;;;23.08;100.00;102743.53;5094586;28;20029;-64
2022/08/06 09:21:41;;;;;;;26.40;12.98;;;;;;;23.10;100.00;102739.50;5093278;28;20096;-59
2022/08/06 09:24:06;;;;;;;;;;;;;;;23.36;100.00;102739.34;5086016;28;20040;-60
2022/08/06 09:26:33;;;;;;;25.33;12.97;;;;;;;23.65;100.00;102745.78;5089209;28;19920;-60
2022/08/06 09:28:59;;;;;;;46.13;22.20;;;;;;;23.98;100.00;102738.84;5089398;28;20037;-60
2022/08/06 09:31:25;;;;;;;57.67;29.70;;;;;;;24.47;100.00;102737.66;5088871;28;20025;-60
2022/08/06 09:34:05;;;;;;;58.10;32.13;;;;;;;25.15;99.61;102742.47;5084095;28;20042;-59
2022/08/06 09:36:41;;;;;;;57.27;28.83;;;;;;;25.34;95.09;102743.03;5087261;28;20066;-60
2022/08/06 09:39:07;;;;;;;22.55;9.30;;;;;;;25.81;92.87;102746.47;5069575;28;20028;-60
2022/08/06 09:41:34;;;;;;;33.27;15.27;;;;;;;25.69;93.56;102749.31;5094852;28;20120;-59
2022/08/06 09:44:09;;;;;;;59.00;29.40;;;;;;;26.45;88.37;102750.59;5096425;28;20087;-60
2022/08/06 09:46:43;;;;;;;94.60;47.20;;;;;;;26.98;84.20;102747.28;5090953;28;20040;-60
2022/08/06 09:49:10;;;;;;;24.70;12.02;;;;;;;26.37;85.84;102751.88;5091485;28;20045;-59
2022/08/06 09:51:37;;;;;;;50.83;26.65;;;;;;;27.31;77.95;102750.81;5089336;28;20025;-59
2022/08/06 09:54:05;;;;;;;34.92;17.77;;;;;;;28.17;70.23;102756.31;5093346;28;20028;-60
2022/08/06 09:56:31;;;;;;;86.72;48.65;;;;;;;28.42;70.67;102754.72;5090921;28;20035;-60
2022/08/06 09:59:06;;;;;;;6.82;3.22;;;;;;;28.88;59.29;102754.03;5070222;28;20040;-60
2022/08/06 10:01:43;;;;;;;70.53;41.17;;;;;;;29.74;57.68;102753.38;5097043;28;20072;-62
2022/08/06 10:04:14;;;;;;;34.65;18.83;;;;;;;30.09;53.07;102759.91;5093031;28;20040;-60
2022/08/06 10:07:03;;;;;;;18.67;10.38;;;;;;;30.16;52.01;102754.88;5094731;28;20033;-60
2022/08/06 10:09:29;;;;;;;30.25;16.88;;;;;;;30.65;52.29;102749.66;5091576;28;20032;-61
2022/08/06 10:11:55;;;;;;;13.07;7.35;;;;;;;31.73;50.41;102752.53;5091841;28;20052;-60
2022/08/06 10:14:32;;;;;;;11.00;5.88;;;;;;;31.59;46.73;102756.00;5093023;28;20032;-61
2022/08/06 10:17:14;;;;;;;4.15;2.08;;;;;;;31.93;43.37;102765.31;5069184;28;20094;-61
2022/08/06 10:19:44;;;;;;;4.75;2.65;;;;;;;31.69;45.29;102757.03;5096261;28;20218;-61
2022/08/06 10:22:15;;;;;;;4.03;2.30;;;;;;;32.86;42.42;102768.75;5091202;28;20124;-61
2022/08/06 10:24:50;;;;;;;4.38;1.45;;;;;;;32.45;40.19;102770.22;5089767;28;20033;-61
2022/08/06 10:27:23;;;;;;;2.17;1.02;;;;;;;31.12;44.17;102763.09;5093261;28;20032;-60
2022/08/06 10:29:51;;;;;;;2.47;0.93;;;;;;;29.83;50.53;102740.66;5093907;28;20091;-60
2022/08/06 10:32:33;;;;;;;2.83;1.17;;;;;;;29.33;50.83;102743.25;5093639;28;20115;-60
2022/08/06 10:35:03;;;;;;;1.92;0.63;;;;;;;28.37;51.80;102743.72;5086529;28;20048;-62
2022/08/06 10:37:32;;;;;;;3.83;1.33;;;;;;;28.35;54.54;102735.72;5089481;28;20074;-62
2022/08/06 10:40:00;;;;;;;5.10;1.35;;;;;;;27.77;56.12;102737.41;5090958;28;20036;-61
2022/08/06 10:42:26;;;;;;;4.57;1.45;;;;;;;27.56;63.37;102736.47;5096799;28;20087;-61
2022/08/06 10:44:52;;;;;;;6.53;1.55;;;;;;;27.22;68.64;102733.19;5088739;28;20036;-62
2022/08/06 10:47:18;;;;;;;3.47;1.20;;;;;;;27.79;64.98;102730.81;5089625;28;20028;-62
2022/08/06 10:49:44;;;;;;;4.07;0.90;;;;;;;29.72;53.23;102739.03;5070161;28;20055;-63
2022/08/06 10:52:12;;;;;;;1.48;0.40;;;;;;;30.03;49.19;102741.72;5075584;28;20138;-61
2022/08/06 10:54:39;;;;;;;3.90;1.95;;;;;;;31.13;48.76;102742.63;5082867;28;20021;-62
2022/08/06 10:57:07;;;;;;;3.80;0.95;;;;;;;31.99;46.13;102738.41;5093537;28;20032;-62
2022/08/06 10:59:33;;;;;;;5.57;1.20;;;;;;;32.79;44.67;102751.69;5094004;28;20024;-62
2022/08/06 11:02:08;;;;;;;2.83;0.90;;;;;;;33.06;44.85;102748.19;5083332;28;20111;-62
2022/08/06 11:04:47;;;;;;;1.90;1.10;;;;;;;33.28;46.18;102746.69;5085524;28;20044;-62
2022/08/06 11:07:36;;;;;;;3.40;1.17;;;;;;;33.42;42.14;102741.16;5080509;28;20055;-61
2022/08/06 11:10:41;;;;;;;4.30;0.80;;;;;;;34.22;37.03;102740.91;5082635;28;20032;-63
2022/08/06 11:13:26;;;;;;;3.17;1.10;;;;;;;34.60;39.63;102739.78;5086464;28;20029;-63
2022/08/06 11:15:52;;;;;;;1.48;0.63;;;;;;;35.18;36.14;102745.56;5084854;28;20112;-62
2022/08/06 11:18:18;;;;;;;3.72;1.13;;;;;;;35.69;34.56;102740.56;5064078;28;20036;-62
2022/08/06 11:20:52;;;;;;;2.20;0.90;;;;;;;35.33;31.52;102737.94;5083078;28;20552;-61
2022/08/06 11:23:17;;;;;;;2.70;1.38;;;;;;;35.40;32.19;102735.50;5082558;28;20043;-62
2022/08/06 11:25:46;;;;;;;3.55;1.00;;;;;;;35.64;33.44;102737.94;5084121;28;20126;-62
2022/08/06 11:28:18;;;;;;;2.85;0.90;;;;;;;35.36;34.85;102738.13;5083914;28;20044;-62
2022/08/06 11:30:53;;;;;;;4.00;1.20;;;;;;;33.33;40.78;102727.19;5083679;28;20045;-62